Hill Air Force Base
KHIF : now visible

Airfield :











YOU CAN JOIN US ON...

 
LOGIN :

Register | Disclaimer

   EN    FR    IT 

 









Legend :    VFR   Marginal VFR   IFR   Intensive IFR   Very Intensive IFR
Visi :
Ceiling :
>= 8 km
>= 3000ft
5 to 8 km
1000 to 3000 ft
1500m to 5 km
500 to 1000 ft
800 to 1500m
200 to 500 ft
< 800m
< 200 ft
Symbols :   Thunderstorms  Fog  Heavy snow  Heavy precipitations  Wind > 20 kt







- Airport Elevation : 4789 ft


KHIF - Hill Air Force Base

CURRENT METAR :
  • 260158Z AUTO 18003KT 10SM CLR 30/04 A2998 RMK AO2 SLP088 T02970036 $

EXPIRED METARs :
  • 260058Z AUTO 18007KT 10SM CLR 31/02 A2998 RMK AO2 SLP088 T03120015 $
  • 252358Z AUTO 29004KT 10SM CLR 31/01 A3000 RMK AO2 SLP095 T03140007 10316 20274 57018 $

TAF TAF KHIF
Valid from the 25 at 21:00 until the 27 at 03:00 UTC


252102Z 2521/2703 27012G18KT 9999 SKC QNH3000INS
BECMG 2600/2601 33009KT 9999 FEW150 QNH2997INS
BECMG 2602/2603 36012G20KT 9999 SKC QNH3004INS
BECMG 2608/2609 VRB06KT 9999 SKC QNH3011INS
BECMG 2618/2619 27009KT 9999 SKC QNH3013INS
BECMG 2700/2701 VRB06KT 9999 SKC QNH3013INS TX31/2521Z TN12/2612Z
No reported NOTAMs for that airfield.



MET'MAP, your aeronautical weather chart ! - Copyright ORBIFLY December 2007 - Disclaimer

ORBIFLY MET'MAP TEAM :

Programming & Development : Alexandra Zaïnal
Concept & Development : Baudouin d'Aumeries
Co-Development & Prog : Marc-Olivier Méhu
Technical & hardware support : Manuel Goepfert

Contact : metmap@orbifly.com




SOURCES & CREDITS :

   NOAA       Earth
Advisory